Latest Weather Observations for Pirlangimpi

IDD60801

Issued at 2:31 pm CST Thursday 2 July 2015 (issued every 30 minutes, with the page automatically refreshed every 10 minutes)

About weather observations | Map of weather stations | Latest weather observations for NT | Other Formats
Station Details ID: 014142 Name: PIRLANGIMPI AIRPORT Lat: -11.40 Lon: 130.42 Height: 18.3 m
Data from the previous 72 hours. | See also: Recent months at Pirlangimpi
Date/Time
CST
Temp
°C
App
Temp
°C
Dew
Point
Rel
Hum
%
Delta-T
°C
Wind Press
QNH
hPa
Press
MSL
hPa
Rain
since 9 am
mm
Dir
 
Spd
km/h
Gust
km/h
Spd
kts
Gust
kts
02/02:30pm 31.1 29.5 15.9 40 9.5 E 19 28 10 15 1013.1 1013.0 0.0
02/02:00pm 32.2 31.3 17.7 42 9.3 ENE 19 28 10 15 1013.7 1013.6 0.0
02/01:30pm 31.7 30.6 17.2 42 9.2 ENE 19 35 10 19 1014.3 1014.2 0.0
02/01:00pm 29.9 28.6 16.7 45 8.3 E 19 33 10 18 1014.7 1014.6 0.0
02/12:30pm 30.4 30.2 17.5 46 8.2 E 15 30 8 16 1015.2 1015.1 0.0
02/12:00pm 29.8 28.5 17.3 47 7.9 ESE 20 32 11 17 1015.6 1015.5 0.0
02/11:30am 29.8 28.8 17.6 48 7.7 ESE 19 32 10 17 1015.9 1015.8 0.0
02/11:00am 28.8 28.4 18.0 52 6.9 ESE 17 26 9 14 1016.4 1016.3 0.0
02/10:30am 28.3 27.0 16.9 50 7.1 E 19 30 10 16 1016.8 1016.7 0.0
02/10:00am 27.8 27.1 17.3 52 6.6 ESE 17 28 9 15 1017.0 1016.9 0.0
02/09:30am 26.7 27.1 19.1 63 4.9 ESE 15 26 8 14 1016.9 1016.8 0.0
02/09:00am 25.6 26.4 19.0 67 4.2 ESE 13 24 7 13 1016.9 1016.8 0.0
02/08:30am 25.5 26.7 19.9 71 3.6 ESE 13 20 7 11 1016.7 1016.6 0.0
02/08:00am 23.9 25.6 19.4 76 2.9 SE 9 13 5 7 1016.2 1016.1 0.0
02/07:30am 23.3 25.5 19.5 79 2.4 SE 7 13 4 7 1016.0 1015.9 0.0
02/07:00am 23.0 25.2 19.6 81 2.2 SE 7 13 4 7 1016.0 1015.9 0.0
02/06:30am 23.0 25.3 19.8 82 2.1 SE 7 13 4 7 1016.0 1015.9 0.0
02/06:00am 23.1 25.1 19.9 82 2.1 ESE 9 17 5 9 1016.2 1016.1 0.0
02/05:30am 23.4 24.6 20.0 81 2.2 SE 13 22 7 12 1016.0 1015.9 0.0
02/05:00am 23.4 24.6 19.8 80 2.3 ESE 13 20 7 11 1015.9 1015.8 0.0
02/04:30am 23.5 24.8 19.4 78 2.6 SE 11 19 6 10 1015.9 1015.8 0.0
02/04:00am 24.3 24.7 19.1 73 3.3 ESE 15 26 8 14 1015.9 1015.8 0.0
02/03:30am 24.3 24.7 19.1 73 3.3 ESE 15 24 8 13 1015.9 1015.8 0.0
02/03:00am 23.8 26.0 19.1 75 3.0 ESE 6 9 3 5 1016.1 1016.0 0.0
02/02:30am 23.1 25.4 18.6 76 2.8 SE 4 6 2 3 1016.1 1016.0 0.0
02/02:00am 23.0 25.9 18.3 75 3.0 CALM 0 0 0 0 1016.3 1016.2 0.0
02/01:30am 23.1 26.0 18.2 74 3.1 CALM 0 0 0 0 1016.4 1016.3 0.0
02/01:00am 23.1 26.0 18.2 74 3.1 CALM 0 0 0 0 1016.6 1016.5 0.0
02/12:30am 23.3 26.2 18.2 73 3.2 CALM 0 2 0 1 1016.6 1016.5 0.0
02/12:00am 23.3 26.2 18.2 73 3.2 CALM 0 0 0 0 1016.7 1016.6 0.0
 
Date/Time
CST
Temp
°C
App
Temp
°C
Dew
Point
Rel
Hum
%
Delta-T
°C
Wind Press
QNH
hPa
Press
MSL
hPa
Rain
since 9 am
mm
Dir
 
Spd
km/h
Gust
km/h
Spd
kts
Gust
kts
01/11:30pm 23.8 26.6 18.9 74 3.1 ESE 2 4 1 2 1016.7 1016.6 0.0
01/11:00pm 23.5 26.2 19.4 78 2.6 ESE 4 6 2 3 1016.7 1016.6 0.0
01/10:30pm 22.4 24.5 17.1 72 3.3 S 2 4 1 2 1016.3 1016.2 0.0
01/10:00pm 23.1 25.0 16.6 67 4.0 SSE 2 6 1 3 1016.0 1015.9 0.0
01/09:30pm 23.6 25.6 16.1 62 4.6 CALM 0 0 0 0 1015.7 1015.6 0.0
01/09:00pm 24.6 26.7 16.3 60 5.1 CALM 0 2 0 1 1015.4 1015.3 0.0
01/08:30pm 25.7 26.8 16.5 56 5.7 E 6 7 3 4 1015.0 1014.9 0.0
01/08:00pm 26.0 27.4 16.3 55 6.0 E 4 6 2 3 1014.6 1014.5 0.0
01/07:30pm 25.9 26.8 16.2 55 6.0 E 6 7 3 4 1014.2 1014.1 0.0
01/07:00pm 26.1 27.0 15.2 51 6.6 E 4 6 2 3 1013.8 1013.7 0.0
01/06:30pm 28.4 29.4 15.3 45 8.0 ESE 4 6 2 3 1013.5 1013.4 0.0
01/06:00pm 29.5 29.4 14.9 41 8.9 ESE 9 15 5 8 1013.3 1013.2 0.0
01/05:30pm 30.1 29.5 14.6 39 9.4 E 11 19 6 10 1013.2 1013.1 0.0
01/05:00pm 30.7 29.5 13.9 36 10.1 E 13 20 7 11 1013.1 1013.0 0.0
01/04:30pm 30.9 30.0 14.9 37 9.8 ESE 13 26 7 14 1013.0 1012.9 0.0
01/04:00pm 30.6 29.5 14.3 37 9.9 ESE 13 24 7 13 1013.0 1012.9 0.0
01/03:30pm 31.7 29.7 13.9 34 10.8 E 17 26 9 14 1013.2 1013.1 0.0
01/03:00pm 30.9 31.3 15.3 38 9.6 SE 7 13 4 7 1013.5 1013.4 0.0
01/02:30pm 31.8 32.1 18.7 45 8.5 SSW 15 20 8 11 1014.0 1013.9 0.0
01/02:00pm 30.6 30.4 17.7 46 8.2 SSW 15 20 8 11 1014.5 1014.4 0.0
01/01:30pm 30.6 30.6 18.0 47 8.1 SSW 15 20 8 11 1015.2 1015.1 0.0
01/01:00pm 31.1 31.5 18.1 46 8.4 SW 13 20 7 11 1015.6 1015.5 0.0
01/12:30pm 30.6 31.6 17.7 46 8.2 S 9 17 5 9 1016.2 1016.1 0.0
01/12:00pm 30.9 30.7 15.7 39 9.4 ESE 11 19 6 10 1016.8 1016.7 0.0
01/11:30am 30.2 29.8 15.1 40 9.2 E 11 17 6 9 1017.4 1017.3 0.0
01/11:00am 29.2 30.7 18.0 51 7.1 SSW 7 9 4 5 1017.9 1017.8 0.0
01/10:30am 28.5 30.0 18.9 56 6.2 SSW 9 13 5 7 1018.0 1017.9 0.0
01/10:00am 27.4 29.6 19.2 61 5.3 SSW 6 9 3 5 1018.2 1018.1 0.0
01/09:30am 25.9 29.5 20.5 72 3.5 SSW 2 4 1 2 1018.2 1018.1 0.0
01/09:00am 23.6 27.2 20.5 83 2.0 S 2 4 1 2 1018.0 1017.9 0.0
01/08:30am 21.7 25.4 20.0 90 1.1 CALM 0 0 0 0 1017.8 1017.7 0.0
01/08:00am 19.2 21.8 17.5 90 1.0 CALM 0 0 0 0 1017.6 1017.5 0.0
01/07:30am 17.9 19.9 16.1 89 1.1 CALM 0 2 0 1 1017.3 1017.2 0.0
01/07:00am 18.3 19.7 16.5 89 1.1 ENE 4 6 2 3 1017.0 1016.9 0.0
01/06:30am 18.1 20.3 16.4 90 1.0 CALM 0 0 0 0 1016.6 1016.5 0.0
01/06:00am 18.1 20.1 15.9 87 1.3 CALM 0 0 0 0 1016.6 1016.5 0.0
01/05:30am 18.1 19.2 15.7 86 1.4 E 4 7 2 4 1016.5 1016.4 0.0
01/05:00am 18.4 19.5 15.6 84 1.7 E 4 6 2 3 1016.4 1016.3 0.0
01/04:30am 18.1 19.6 14.6 80 2.0 CALM 0 0 0 0 1016.3 1016.2 0.0
01/04:00am 18.3 19.6 14.2 77 2.4 CALM 0 0 0 0 1016.3 1016.2 0.0
01/03:30am 18.4 19.4 14.3 77 2.4 ENE 2 2 1 1 1016.5 1016.4 0.0
01/03:00am 18.7 20.2 14.6 77 2.4 CALM 0 0 0 0 1016.6 1016.5 0.0
01/02:30am 18.7 20.3 14.8 78 2.3 CALM 0 4 0 2 1016.8 1016.7 0.0
01/02:00am 18.7 20.3 14.8 78 2.3 CALM 0 0 0 0 1016.8 1016.7 0.0
01/01:30am 19.1 20.7 14.8 76 2.5 CALM 0 2 0 1 1016.9 1016.8 0.0
01/01:00am 19.2 20.9 15.1 77 2.4 CALM 0 0 0 0 1017.1 1017.0 0.0
01/12:30am 18.9 19.9 14.2 74 2.7 ENE 2 6 1 3 1017.1 1017.0 0.0
01/12:00am 18.9 20.1 14.8 77 2.4 E 2 4 1 2 1016.9 1016.8 0.0
 
Date/Time
CST
Temp
°C
App
Temp
°C
Dew
Point
Rel
Hum
%
Delta-T
°C
Wind Press
QNH
hPa
Press
MSL
hPa
Rain
since 9 am
mm
Dir
 
Spd
km/h
Gust
km/h
Spd
kts
Gust
kts
30/11:30pm 18.6 18.8 13.2 71 3.0 SE 4 6 2 3 1016.9 1016.8 0.0
30/11:00pm 19.1 19.2 12.6 66 3.6 ENE 4 15 2 8 1016.6 1016.5 0.0
30/10:30pm 19.3 19.6 12.3 64 3.9 ENE 2 4 1 2 1016.3 1016.2 0.0
30/10:00pm 20.0 20.6 12.0 60 4.5 CALM 0 0 0 0 1016.1 1016.0 0.0
30/09:30pm 19.9 20.6 12.2 61 4.3 CALM 0 0 0 0 1016.0 1015.9 0.0
30/09:00pm 20.6 20.6 12.3 59 4.7 ESE 4 7 2 4 1015.8 1015.7 0.0
30/08:30pm 20.9 21.4 11.5 55 5.2 CALM 0 0 0 0 1015.5 1015.4 0.0
30/08:00pm 21.9 21.1 11.0 50 6.0 ENE 6 6 3 3 1015.0 1014.9 0.0
30/07:30pm 23.0 22.5 10.8 46 6.8 NE 4 6 2 3 1014.6 1014.5 0.0
30/07:00pm 24.9 24.0 10.8 41 7.9 ENE 6 7 3 4 1014.2 1014.1 0.0
30/06:30pm 27.0 26.2 9.8 34 9.6 ESE 4 6 2 3 1013.9 1013.8 0.0
30/06:00pm 28.7 27.3 9.4 30 10.7 ESE 7 13 4 7 1013.7 1013.6 0.0
30/05:30pm 29.6 27.2 8.6 27 11.6 E 11 19 6 10 1013.5 1013.4 0.0
30/05:00pm 30.6 28.1 8.3 25 12.3 ESE 11 20 6 11 1013.2 1013.1 0.0
30/04:30pm 30.9 27.6 8.0 24 12.6 ESE 15 22 8 12 1013.0 1012.9 0.0
30/04:00pm 31.1 27.6 8.8 25 12.4 ESE 17 26 9 14 1013.1 1013.0 0.0
30/03:30pm 31.3 28.6 8.9 25 12.5 ESE 13 24 7 13 1013.0 1012.9 0.0
30/03:00pm 31.2 28.9 10.5 28 11.9 SE 13 20 7 11 1013.2 1013.1 0.0
30/02:30pm 31.3 29.4 11.7 30 11.5 ESE 13 19 7 10 1013.6 1013.5 0.0
30/02:00pm 30.5 29.5 13.3 35 10.3 ESE 11 17 6 9 1014.2 1014.1 0.0
30/01:30pm 30.4 29.2 14.1 37 9.8 S 13 20 7 11 1014.4 1014.3 0.0
30/01:00pm 31.3 30.6 14.4 35 10.3 SE 11 20 6 11 1014.9 1014.8 0.0
30/12:30pm 30.6 29.6 13.4 35 10.3 ESE 11 24 6 13 1015.6 1015.5 0.0
30/12:00pm 30.5 29.8 14.2 37 9.9 ESE 11 19 6 10 1016.0 1015.9 0.0
30/11:30am 30.1 29.5 14.6 39 9.4 ESE 11 17 6 9 1016.4 1016.3 0.0
30/11:00am 29.3 28.9 16.1 44 8.2 SE 13 19 7 10 1016.9 1016.8 0.0
30/10:30am 28.5 30.2 18.6 55 6.3 E 7 13 4 7 1017.1 1017.0 0.0
30/10:00am 27.4 29.4 18.7 59 5.6 E 6 9 3 5 1017.3 1017.2 0.0
30/09:30am 26.1 28.3 19.5 67 4.3 E 7 17 4 9 1017.5 1017.4 0.0
30/09:00am 23.9 26.4 19.0 74 3.1 E 4 6 2 3 1017.3 1017.2 0.0
30/08:30am 22.5 24.4 18.5 78 2.5 E 6 7 3 4 1017.3 1017.2 0.0
30/08:00am 20.9 22.9 18.8 88 1.3 E 6 9 3 5 1017.0 1016.9 0.0
30/07:30am 19.8 21.5 18.6 93 0.7 ENE 7 13 4 7 1016.7 1016.6 0.0
30/07:00am 18.2 20.7 17.2 94 0.6 CALM 0 4 0 2 1016.3 1016.2 0.0
30/06:30am 18.4 20.5 17.2 93 0.7 ENE 2 4 1 2 1016.0 1015.9 0.0
30/06:00am 18.7 21.0 17.7 94 0.6 NNW 2 2 1 1 1015.8 1015.7 0.0
30/05:30am 19.0 21.1 18.0 94 0.6 ENE 4 7 2 4 1015.9 1015.8 0.0
30/05:00am 19.4 21.7 18.6 95 0.5 E 4 7 2 4 1015.9 1015.8 0.0
30/04:30am 18.9 21.6 17.7 93 0.7 CALM 0 2 0 1 1015.8 1015.7 0.0
30/04:00am 19.0 21.7 17.8 93 0.7 CALM 0 0 0 0 1015.9 1015.8 0.0
30/03:30am 19.1 21.4 17.8 92 0.8 ENE 2 4 1 2 1016.1 1016.0 0.0
30/03:00am 19.4 21.9 18.2 93 0.7 ENE 2 6 1 3 1016.3 1016.2 0.0
30/02:30am 19.6 22.2 18.3 92 0.8 NE 2 4 1 2 1016.2 1016.1 0.0
30/02:00am 19.9 23.0 18.6 92 0.8 CALM 0 0 0 0 1016.4 1016.3 0.0
30/01:30am 20.4 23.3 19.1 92 0.8 NE 2 2 1 1 1016.5 1016.4 0.0
30/01:00am 20.6 23.6 19.3 92 0.8 SSE 2 4 1 2 1016.6 1016.5 0.0
30/12:30am 20.3 22.8 19.0 92 0.8 SSE 4 6 2 3 1016.6 1016.5 0.0
30/12:00am 20.3 23.1 18.8 91 0.9 ESE 2 2 1 1 1016.4 1016.3 0.0
 
Date/Time
CST
Temp
°C
App
Temp
°C
Dew
Point
Rel
Hum
%
Delta-T
°C
Wind Press
QNH
hPa
Press
MSL
hPa
Rain
since 9 am
mm
Dir
 
Spd
km/h
Gust
km/h
Spd
kts
Gust
kts
29/11:30pm 20.3 23.2 18.2 88 1.3 CALM 0 4 0 2 1016.4 1016.3 0.0
29/11:00pm 20.8 23.6 18.9 89 1.2 ENE 2 6 1 3 1016.2 1016.1 0.0
29/10:30pm 21.0 24.2 18.8 87 1.4 CALM 0 2 0 1 1016.2 1016.1 0.0
29/10:00pm 21.6 24.9 19.0 85 1.6 CALM 0 0 0 0 1016.0 1015.9 0.0
29/09:30pm 22.0 25.3 19.2 84 1.8 CALM 0 2 0 1 1016.0 1015.9 0.0
29/09:00pm 22.3 25.2 19.1 82 2.0 NNE 2 2 1 1 1015.8 1015.7 0.0
29/08:30pm 23.1 25.6 19.1 78 2.5 NE 4 6 2 3 1015.5 1015.4 0.0
29/08:00pm 23.7 27.0 19.0 75 3.0 CALM 0 4 0 2 1015.2 1015.1 0.0
29/07:30pm 25.2 28.7 19.6 71 3.6 CALM 0 2 0 1 1015.1 1015.0 0.0
29/07:00pm 25.0 27.9 19.1 70 3.8 NNE 2 4 1 2 1014.8 1014.7 0.0
29/06:30pm 25.7 28.6 19.1 67 4.2 NNE 2 7 1 4 1014.4 1014.3 0.0
29/06:00pm 26.7 29.3 19.3 64 4.8 N 4 7 2 4 1014.1 1014.0 0.0
29/05:30pm 27.6 30.0 19.7 62 5.1 NNW 6 9 3 5 1013.8 1013.7 0.0
29/05:00pm 28.0 30.7 19.5 60 5.5 N 4 6 2 3 1013.5 1013.4 0.0
29/04:30pm 28.8 31.1 18.6 54 6.6 NW 4 7 2 4 1013.4 1013.3 0.0
29/04:00pm 30.4 30.8 18.2 48 7.8 S 13 17 7 9 1013.2 1013.1 0.0
29/03:30pm 29.5 30.2 18.0 50 7.3 SSW 11 17 6 9 1013.4 1013.3 0.0
29/03:00pm 29.6 30.4 18.1 50 7.4 SSW 11 15 6 8 1013.7 1013.6 0.0

Other Formats:

Comma delimited format used in spreadsheet applications
http://www.bom.gov.au/fwo/IDD60801/IDD60801.94119.axf

JavaScript Object Notation format (JSON) in row-major order
http://www.bom.gov.au/fwo/IDD60801/IDD60801.94119.json